sensor_id;sensor_type;location;lat;lon;timestamp;temperature;humidity
20463;DHT22;10390;53.566;9.980;2023-04-24T00:02:04;24.70;1.00
20463;DHT22;10390;53.566;9.980;2023-04-24T00:04:32;24.70;1.00
20463;DHT22;10390;53.566;9.980;2023-04-24T00:06:58;24.70;1.00
20463;DHT22;10390;53.566;9.980;2023-04-24T00:09:25;24.70;1.00
20463;DHT22;10390;53.566;9.980;2023-04-24T00:11:52;24.70;1.00
20463;DHT22;10390;53.566;9.980;2023-04-24T00:14:19;24.80;1.00
20463;DHT22;10390;53.566;9.980;2023-04-24T00:16:44;24.80;1.00
20463;DHT22;10390;53.566;9.980;2023-04-24T00:19:10;24.80;1.00
20463;DHT22;10390;53.566;9.980;2023-04-24T00:21:36;24.90;1.00
20463;DHT22;10390;53.566;9.980;2023-04-24T00:24:03;24.90;1.00
20463;DHT22;10390;53.566;9.980;2023-04-24T00:26:29;24.90;1.00
20463;DHT22;10390;53.566;9.980;2023-04-24T00:28:54;25.00;1.00
20463;DHT22;10390;53.566;9.980;2023-04-24T00:31:20;25.00;1.00
20463;DHT22;10390;53.566;9.980;2023-04-24T00:33:45;25.10;1.00
20463;DHT22;10390;53.566;9.980;2023-04-24T00:36:11;25.10;1.00
20463;DHT22;10390;53.566;9.980;2023-04-24T00:38:37;25.10;1.00
20463;DHT22;10390;53.566;9.980;2023-04-24T00:41:03;25.10;1.00
20463;DHT22;10390;53.566;9.980;2023-04-24T00:43:28;25.20;1.00
20463;DHT22;10390;53.566;9.980;2023-04-24T00:45:54;25.20;1.00
20463;DHT22;10390;53.566;9.980;2023-04-24T00:48:20;25.20;1.00
20463;DHT22;10390;53.566;9.980;2023-04-24T00:50:46;25.30;1.00
20463;DHT22;10390;53.566;9.980;2023-04-24T00:53:12;25.30;1.00
20463;DHT22;10390;53.566;9.980;2023-04-24T00:55:37;25.30;1.00
20463;DHT22;10390;53.566;9.980;2023-04-24T00:58:03;25.30;1.00
20463;DHT22;10390;53.566;9.980;2023-04-24T01:00:29;25.30;1.00
20463;DHT22;10390;53.566;9.980;2023-04-24T01:02:58;25.30;1.00
20463;DHT22;10390;53.566;9.980;2023-04-24T01:05:24;25.30;1.00
20463;DHT22;10390;53.566;9.980;2023-04-24T01:07:50;25.30;1.00
20463;DHT22;10390;53.566;9.980;2023-04-24T01:10:16;25.40;1.00
20463;DHT22;10390;53.566;9.980;2023-04-24T01:12:43;25.40;1.00
20463;DHT22;10390;53.566;9.980;2023-04-24T01:15:09;25.40;1.00
20463;DHT22;10390;53.566;9.980;2023-04-24T01:17:35;25.40;1.00
20463;DHT22;10390;53.566;9.980;2023-04-24T01:20:01;25.40;1.00
20463;DHT22;10390;53.566;9.980;2023-04-24T01:22:31;25.50;1.00
20463;DHT22;10390;53.566;9.980;2023-04-24T01:24:57;25.50;1.00
20463;DHT22;10390;53.566;9.980;2023-04-24T01:27:23;25.50;1.00
20463;DHT22;10390;53.566;9.980;2023-04-24T01:29:48;25.50;1.00
20463;DHT22;10390;53.566;9.980;2023-04-24T01:32:16;25.50;1.00
20463;DHT22;10390;53.566;9.980;2023-04-24T01:34:43;25.50;1.00
20463;DHT22;10390;53.566;9.980;2023-04-24T01:37:08;25.50;1.00
20463;DHT22;10390;53.566;9.980;2023-04-24T01:39:34;25.50;1.00
20463;DHT22;10390;53.566;9.980;2023-04-24T01:42:00;25.50;1.00
20463;DHT22;10390;53.566;9.980;2023-04-24T01:44:27;25.50;1.00
20463;DHT22;10390;53.566;9.980;2023-04-24T01:46:54;25.60;1.00
20463;DHT22;10390;53.566;9.980;2023-04-24T01:49:20;25.60;1.00
20463;DHT22;10390;53.566;9.980;2023-04-24T01:51:46;25.50;1.00
20463;DHT22;10390;53.566;9.980;2023-04-24T01:54:12;25.50;1.00
20463;DHT22;10390;53.566;9.980;2023-04-24T01:56:41;25.60;1.00
20463;DHT22;10390;53.566;9.980;2023-04-24T01:59:09;25.60;1.00
20463;DHT22;10390;53.566;9.980;2023-04-24T02:01:36;25.60;1.00
20463;DHT22;10390;53.566;9.980;2023-04-24T02:04:02;25.60;1.00
20463;DHT22;10390;53.566;9.980;2023-04-24T02:06:27;25.50;1.00
20463;DHT22;10390;53.566;9.980;2023-04-24T02:08:53;25.60;1.00
20463;DHT22;10390;53.566;9.980;2023-04-24T02:11:19;25.50;1.00
20463;DHT22;10390;53.566;9.980;2023-04-24T02:13:44;25.60;1.00
20463;DHT22;10390;53.566;9.980;2023-04-24T02:16:10;25.60;1.00
20463;DHT22;10390;53.566;9.980;2023-04-24T02:18:36;25.60;1.00
20463;DHT22;10390;53.566;9.980;2023-04-24T02:21:01;25.60;1.00
20463;DHT22;10390;53.566;9.980;2023-04-24T02:23:27;25.60;1.00
20463;DHT22;10390;53.566;9.980;2023-04-24T02:25:53;25.60;1.00
20463;DHT22;10390;53.566;9.980;2023-04-24T02:28:19;25.50;1.00
20463;DHT22;10390;53.566;9.980;2023-04-24T02:30:45;25.60;1.00
20463;DHT22;10390;53.566;9.980;2023-04-24T02:33:11;25.60;1.00
20463;DHT22;10390;53.566;9.980;2023-04-24T02:35:37;25.60;1.00
20463;DHT22;10390;53.566;9.980;2023-04-24T02:38:02;25.60;1.00
20463;DHT22;10390;53.566;9.980;2023-04-24T02:40:28;25.50;1.00
20463;DHT22;10390;53.566;9.980;2023-04-24T02:42:54;25.50;1.00
20463;DHT22;10390;53.566;9.980;2023-04-24T02:45:20;25.60;1.00
20463;DHT22;10390;53.566;9.980;2023-04-24T02:47:45;25.50;1.00
20463;DHT22;10390;53.566;9.980;2023-04-24T02:50:11;25.50;1.00
20463;DHT22;10390;53.566;9.980;2023-04-24T02:52:36;25.50;1.00
20463;DHT22;10390;53.566;9.980;2023-04-24T02:55:02;25.50;1.00
20463;DHT22;10390;53.566;9.980;2023-04-24T02:57:28;25.50;1.00
20463;DHT22;10390;53.566;9.980;2023-04-24T02:59:53;25.50;1.00
20463;DHT22;10390;53.566;9.980;2023-04-24T03:02:19;25.50;1.00
20463;DHT22;10390;53.566;9.980;2023-04-24T03:04:46;25.50;1.00
20463;DHT22;10390;53.566;9.980;2023-04-24T03:07:13;25.50;1.00
20463;DHT22;10390;53.566;9.980;2023-04-24T03:09:40;25.50;1.00
20463;DHT22;10390;53.566;9.980;2023-04-24T03:12:06;25.50;1.00
20463;DHT22;10390;53.566;9.980;2023-04-24T03:14:32;25.50;1.00
20463;DHT22;10390;53.566;9.980;2023-04-24T03:16:57;25.50;1.00
20463;DHT22;10390;53.566;9.980;2023-04-24T03:19:23;25.50;1.00
20463;DHT22;10390;53.566;9.980;2023-04-24T03:21:49;25.50;1.00
20463;DHT22;10390;53.566;9.980;2023-04-24T03:24:15;25.50;1.00
20463;DHT22;10390;53.566;9.980;2023-04-24T03:26:41;25.50;1.00
20463;DHT22;10390;53.566;9.980;2023-04-24T03:29:07;25.40;1.00
20463;DHT22;10390;53.566;9.980;2023-04-24T03:31:32;25.50;1.00
20463;DHT22;10390;53.566;9.980;2023-04-24T03:33:58;25.50;1.00
20463;DHT22;10390;53.566;9.980;2023-04-24T03:36:23;25.50;1.00
20463;DHT22;10390;53.566;9.980;2023-04-24T03:38:49;25.50;1.00
20463;DHT22;10390;53.566;9.980;2023-04-24T03:41:14;25.50;1.00
20463;DHT22;10390;53.566;9.980;2023-04-24T03:43:40;25.40;1.00
20463;DHT22;10390;53.566;9.980;2023-04-24T03:46:06;25.40;1.00
20463;DHT22;10390;53.566;9.980;2023-04-24T03:48:32;25.40;1.00
20463;DHT22;10390;53.566;9.980;2023-04-24T03:50:57;25.40;1.00
20463;DHT22;10390;53.566;9.980;2023-04-24T03:53:23;25.40;1.00
20463;DHT22;10390;53.566;9.980;2023-04-24T03:55:49;25.40;1.00
20463;DHT22;10390;53.566;9.980;2023-04-24T03:58:14;25.40;1.00
20463;DHT22;10390;53.566;9.980;2023-04-24T04:00:40;25.40;1.00
20463;DHT22;10390;53.566;9.980;2023-04-24T04:03:06;25.40;1.00
20463;DHT22;10390;53.566;9.980;2023-04-24T04:05:32;25.40;1.00
20463;DHT22;10390;53.566;9.980;2023-04-24T04:07:57;25.30;1.00
20463;DHT22;10390;53.566;9.980;2023-04-24T04:10:23;25.30;1.00
20463;DHT22;10390;53.566;9.980;2023-04-24T04:12:48;25.40;1.00
20463;DHT22;10390;53.566;9.980;2023-04-24T04:15:14;25.40;1.00
20463;DHT22;10390;53.566;9.980;2023-04-24T04:17:40;25.30;1.00
20463;DHT22;10390;53.566;9.980;2023-04-24T04:20:06;25.30;1.00
20463;DHT22;10390;53.566;9.980;2023-04-24T04:22:35;25.30;1.00
20463;DHT22;10390;53.566;9.980;2023-04-24T04:25:01;25.30;1.00
20463;DHT22;10390;53.566;9.980;2023-04-24T04:27:26;25.30;1.00
20463;DHT22;10390;53.566;9.980;2023-04-24T04:29:53;25.30;1.00
20463;DHT22;10390;53.566;9.980;2023-04-24T04:32:22;25.30;1.00
20463;DHT22;10390;53.566;9.980;2023-04-24T04:34:47;25.30;1.00
20463;DHT22;10390;53.566;9.980;2023-04-24T04:37:14;25.30;1.00
20463;DHT22;10390;53.566;9.980;2023-04-24T04:39:40;25.30;1.00
20463;DHT22;10390;53.566;9.980;2023-04-24T04:42:06;25.30;1.00
20463;DHT22;10390;53.566;9.980;2023-04-24T04:44:32;25.30;1.00
20463;DHT22;10390;53.566;9.980;2023-04-24T04:46:58;25.30;1.00
20463;DHT22;10390;53.566;9.980;2023-04-24T04:49:25;25.20;1.00
20463;DHT22;10390;53.566;9.980;2023-04-24T04:51:53;25.30;1.00
20463;DHT22;10390;53.566;9.980;2023-04-24T04:54:19;25.30;1.00
20463;DHT22;10390;53.566;9.980;2023-04-24T04:56:44;25.30;1.00
20463;DHT22;10390;53.566;9.980;2023-04-24T04:59:10;25.30;1.00
20463;DHT22;10390;53.566;9.980;2023-04-24T05:01:36;25.30;1.00
20463;DHT22;10390;53.566;9.980;2023-04-24T05:04:02;25.30;1.00
20463;DHT22;10390;53.566;9.980;2023-04-24T05:06:27;25.30;1.00
20463;DHT22;10390;53.566;9.980;2023-04-24T05:08:53;25.30;1.00
20463;DHT22;10390;53.566;9.980;2023-04-24T05:11:23;25.30;1.00
20463;DHT22;10390;53.566;9.980;2023-04-24T05:13:48;25.30;1.00
20463;DHT22;10390;53.566;9.980;2023-04-24T05:16:14;25.20;1.00
20463;DHT22;10390;53.566;9.980;2023-04-24T05:18:40;25.30;1.00
20463;DHT22;10390;53.566;9.980;2023-04-24T05:21:05;25.30;1.00
20463;DHT22;10390;53.566;9.980;2023-04-24T05:23:31;25.30;1.00
20463;DHT22;10390;53.566;9.980;2023-04-24T05:25:57;25.30;1.00
20463;DHT22;10390;53.566;9.980;2023-04-24T05:28:22;25.30;1.00
20463;DHT22;10390;53.566;9.980;2023-04-24T05:30:48;25.30;1.00
20463;DHT22;10390;53.566;9.980;2023-04-24T05:33:14;25.30;1.00
20463;DHT22;10390;53.566;9.980;2023-04-24T05:35:40;25.30;1.00
20463;DHT22;10390;53.566;9.980;2023-04-24T05:38:12;25.40;1.00
20463;DHT22;10390;53.566;9.980;2023-04-24T05:40:38;25.40;1.00
20463;DHT22;10390;53.566;9.980;2023-04-24T05:43:04;25.40;1.00
20463;DHT22;10390;53.566;9.980;2023-04-24T05:45:29;25.40;1.00
20463;DHT22;10390;53.566;9.980;2023-04-24T05:47:55;25.40;1.00
20463;DHT22;10390;53.566;9.980;2023-04-24T05:50:21;25.50;1.00
20463;DHT22;10390;53.566;9.980;2023-04-24T05:52:46;25.50;1.00
20463;DHT22;10390;53.566;9.980;2023-04-24T05:55:12;25.50;1.00
20463;DHT22;10390;53.566;9.980;2023-04-24T05:57:38;25.50;1.00
20463;DHT22;10390;53.566;9.980;2023-04-24T06:00:04;25.50;1.00
20463;DHT22;10390;53.566;9.980;2023-04-24T06:02:30;25.60;1.00
20463;DHT22;10390;53.566;9.980;2023-04-24T06:04:58;25.60;1.00
20463;DHT22;10390;53.566;9.980;2023-04-24T06:07:25;25.60;1.00
20463;DHT22;10390;53.566;9.980;2023-04-24T06:09:52;25.60;1.00
20463;DHT22;10390;53.566;9.980;2023-04-24T06:12:17;25.70;1.00
20463;DHT22;10390;53.566;9.980;2023-04-24T06:14:43;25.70;1.00
20463;DHT22;10390;53.566;9.980;2023-04-24T06:17:08;25.80;1.00
20463;DHT22;10390;53.566;9.980;2023-04-24T06:19:34;25.70;1.00
20463;DHT22;10390;53.566;9.980;2023-04-24T06:22:00;25.80;1.00
20463;DHT22;10390;53.566;9.980;2023-04-24T06:24:28;25.80;1.00
20463;DHT22;10390;53.566;9.980;2023-04-24T06:26:54;25.80;1.00
20463;DHT22;10390;53.566;9.980;2023-04-24T06:29:22;25.90;1.00
20463;DHT22;10390;53.566;9.980;2023-04-24T06:31:47;25.90;1.00
20463;DHT22;10390;53.566;9.980;2023-04-24T06:34:13;25.90;1.00
20463;DHT22;10390;53.566;9.980;2023-04-24T06:36:38;26.00;1.00
20463;DHT22;10390;53.566;9.980;2023-04-24T06:39:04;25.90;1.00
20463;DHT22;10390;53.566;9.980;2023-04-24T06:41:30;26.00;1.00
20463;DHT22;10390;53.566;9.980;2023-04-24T06:43:55;26.00;1.00
20463;DHT22;10390;53.566;9.980;2023-04-24T06:46:21;26.10;1.00
20463;DHT22;10390;53.566;9.980;2023-04-24T06:48:52;26.10;1.00
20463;DHT22;10390;53.566;9.980;2023-04-24T06:51:22;26.10;1.00
20463;DHT22;10390;53.566;9.980;2023-04-24T06:53:48;26.10;1.00
20463;DHT22;10390;53.566;9.980;2023-04-24T06:56:13;26.20;1.00
20463;DHT22;10390;53.566;9.980;2023-04-24T06:58:39;26.20;1.00
20463;DHT22;10390;53.566;9.980;2023-04-24T07:01:04;26.20;1.00
20463;DHT22;10390;53.566;9.980;2023-04-24T07:03:30;26.20;1.00
20463;DHT22;10390;53.566;9.980;2023-04-24T07:05:56;26.20;1.00
20463;DHT22;10390;53.566;9.980;2023-04-24T07:08:23;26.20;1.00
20463;DHT22;10390;53.566;9.980;2023-04-24T07:10:49;26.30;1.00
20463;DHT22;10390;53.566;9.980;2023-04-24T07:13:16;26.30;1.00
20463;DHT22;10390;53.566;9.980;2023-04-24T07:15:42;26.30;1.00
20463;DHT22;10390;53.566;9.980;2023-04-24T07:18:08;26.40;1.00
20463;DHT22;10390;53.566;9.980;2023-04-24T07:20:34;26.40;1.00
20463;DHT22;10390;53.566;9.980;2023-04-24T07:23:00;26.40;1.00
20463;DHT22;10390;53.566;9.980;2023-04-24T07:25:25;26.40;1.00
20463;DHT22;10390;53.566;9.980;2023-04-24T07:27:51;26.40;1.00
20463;DHT22;10390;53.566;9.980;2023-04-24T07:30:17;26.50;1.00
20463;DHT22;10390;53.566;9.980;2023-04-24T07:32:43;26.50;1.00
20463;DHT22;10390;53.566;9.980;2023-04-24T07:35:09;26.50;1.00
20463;DHT22;10390;53.566;9.980;2023-04-24T07:37:35;26.50;1.00
20463;DHT22;10390;53.566;9.980;2023-04-24T07:40:01;26.50;1.00
20463;DHT22;10390;53.566;9.980;2023-04-24T07:42:27;26.50;1.00
20463;DHT22;10390;53.566;9.980;2023-04-24T07:44:53;26.50;1.00
20463;DHT22;10390;53.566;9.980;2023-04-24T07:47:19;26.50;1.00
20463;DHT22;10390;53.566;9.980;2023-04-24T07:49:44;26.50;1.00
20463;DHT22;10390;53.566;9.980;2023-04-24T07:52:10;26.50;1.00
20463;DHT22;10390;53.566;9.980;2023-04-24T07:54:36;26.50;1.00
20463;DHT22;10390;53.566;9.980;2023-04-24T07:57:02;26.60;1.00
20463;DHT22;10390;53.566;9.980;2023-04-24T07:59:28;26.60;1.00
20463;DHT22;10390;53.566;9.980;2023-04-24T08:01:53;26.60;1.00
20463;DHT22;10390;53.566;9.980;2023-04-24T08:04:19;26.60;1.00
20463;DHT22;10390;53.566;9.980;2023-04-24T08:06:47;26.50;1.00
20463;DHT22;10390;53.566;9.980;2023-04-24T08:09:13;26.60;1.00
20463;DHT22;10390;53.566;9.980;2023-04-24T08:11:38;26.60;1.00
20463;DHT22;10390;53.566;9.980;2023-04-24T08:14:04;26.60;1.00
20463;DHT22;10390;53.566;9.980;2023-04-24T08:16:31;26.60;1.00
20463;DHT22;10390;53.566;9.980;2023-04-24T08:18:57;26.60;1.00
20463;DHT22;10390;53.566;9.980;2023-04-24T08:21:23;26.60;1.00
20463;DHT22;10390;53.566;9.980;2023-04-24T08:23:48;26.60;1.00
20463;DHT22;10390;53.566;9.980;2023-04-24T08:26:14;26.60;1.00
20463;DHT22;10390;53.566;9.980;2023-04-24T08:28:40;26.60;1.00
20463;DHT22;10390;53.566;9.980;2023-04-24T08:31:06;26.60;1.00
20463;DHT22;10390;53.566;9.980;2023-04-24T08:33:31;26.60;1.00
20463;DHT22;10390;53.566;9.980;2023-04-24T08:36:02;26.60;1.00
20463;DHT22;10390;53.566;9.980;2023-04-24T08:38:27;26.60;1.00
20463;DHT22;10390;53.566;9.980;2023-04-24T08:40:53;26.60;1.00
20463;DHT22;10390;53.566;9.980;2023-04-24T08:43:22;26.60;1.00
20463;DHT22;10390;53.566;9.980;2023-04-24T08:45:48;26.60;1.00
20463;DHT22;10390;53.566;9.980;2023-04-24T08:48:14;26.60;1.00
20463;DHT22;10390;53.566;9.980;2023-04-24T08:50:40;26.60;1.00
20463;DHT22;10390;53.566;9.980;2023-04-24T08:53:08;26.60;1.00
20463;DHT22;10390;53.566;9.980;2023-04-24T08:55:34;26.60;1.00
20463;DHT22;10390;53.566;9.980;2023-04-24T08:58:01;26.50;1.00
20463;DHT22;10390;53.566;9.980;2023-04-24T09:00:28;26.60;1.00
20463;DHT22;10390;53.566;9.980;2023-04-24T09:02:55;26.50;1.00
20463;DHT22;10390;53.566;9.980;2023-04-24T09:05:22;26.60;1.00
20463;DHT22;10390;53.566;9.980;2023-04-24T09:07:59;26.50;1.00
20463;DHT22;10390;53.566;9.980;2023-04-24T09:10:27;26.50;1.00
20463;DHT22;10390;53.566;9.980;2023-04-24T09:12:56;26.50;1.00
20463;DHT22;10390;53.566;9.980;2023-04-24T09:15:23;26.60;1.00
20463;DHT22;10390;53.566;9.980;2023-04-24T09:17:49;26.50;1.00
20463;DHT22;10390;53.566;9.980;2023-04-24T09:20:15;26.50;1.00
20463;DHT22;10390;53.566;9.980;2023-04-24T09:22:42;26.50;1.00
20463;DHT22;10390;53.566;9.980;2023-04-24T09:25:08;26.50;1.00
20463;DHT22;10390;53.566;9.980;2023-04-24T09:27:35;26.50;1.00
20463;DHT22;10390;53.566;9.980;2023-04-24T09:30:02;26.50;1.00
20463;DHT22;10390;53.566;9.980;2023-04-24T09:32:28;26.50;1.00
20463;DHT22;10390;53.566;9.980;2023-04-24T09:35:12;26.50;1.00
20463;DHT22;10390;53.566;9.980;2023-04-24T09:37:46;26.40;1.00
20463;DHT22;10390;53.566;9.980;2023-04-24T09:40:14;26.50;1.00
20463;DHT22;10390;53.566;9.980;2023-04-24T09:42:54;26.40;1.00
20463;DHT22;10390;53.566;9.980;2023-04-24T09:45:21;26.50;1.00
20463;DHT22;10390;53.566;9.980;2023-04-24T09:47:51;26.40;1.00
20463;DHT22;10390;53.566;9.980;2023-04-24T09:50:18;26.50;1.00
20463;DHT22;10390;53.566;9.980;2023-04-24T09:52:46;26.40;1.00
20463;DHT22;10390;53.566;9.980;2023-04-24T09:55:21;26.40;1.00
20463;DHT22;10390;53.566;9.980;2023-04-24T09:57:48;26.40;1.00
20463;DHT22;10390;53.566;9.980;2023-04-24T10:00:18;26.40;1.00
20463;DHT22;10390;53.566;9.980;2023-04-24T10:02:44;26.40;1.00
20463;DHT22;10390;53.566;9.980;2023-04-24T10:05:11;26.40;1.00
20463;DHT22;10390;53.566;9.980;2023-04-24T10:07:38;26.40;1.00
20463;DHT22;10390;53.566;9.980;2023-04-24T10:10:04;26.40;1.00
20463;DHT22;10390;53.566;9.980;2023-04-24T10:12:30;26.40;1.00
20463;DHT22;10390;53.566;9.980;2023-04-24T10:14:56;26.40;1.00
20463;DHT22;10390;53.566;9.980;2023-04-24T10:17:24;26.40;1.00
20463;DHT22;10390;53.566;9.980;2023-04-24T10:19:51;26.40;1.00
20463;DHT22;10390;53.566;9.980;2023-04-24T10:22:17;26.40;1.00
20463;DHT22;10390;53.566;9.980;2023-04-24T10:24:44;26.40;1.00
20463;DHT22;10390;53.566;9.980;2023-04-24T10:27:11;26.40;1.00
20463;DHT22;10390;53.566;9.980;2023-04-24T10:29:39;26.40;1.00
20463;DHT22;10390;53.566;9.980;2023-04-24T10:32:07;26.30;1.00
20463;DHT22;10390;53.566;9.980;2023-04-24T10:34:32;26.30;1.00
20463;DHT22;10390;53.566;9.980;2023-04-24T10:36:58;26.40;1.00
20463;DHT22;10390;53.566;9.980;2023-04-24T10:39:24;26.40;1.00
20463;DHT22;10390;53.566;9.980;2023-04-24T10:41:50;26.40;1.00
20463;DHT22;10390;53.566;9.980;2023-04-24T10:44:16;26.40;1.00
20463;DHT22;10390;53.566;9.980;2023-04-24T10:46:46;26.40;1.00
20463;DHT22;10390;53.566;9.980;2023-04-24T10:49:14;26.40;1.00
20463;DHT22;10390;53.566;9.980;2023-04-24T10:54:49;26.30;1.00
20463;DHT22;10390;53.566;9.980;2023-04-24T10:59:51;26.40;1.00
20463;DHT22;10390;53.566;9.980;2023-04-24T11:02:18;26.30;1.00
20463;DHT22;10390;53.566;9.980;2023-04-24T11:04:44;26.30;1.00
20463;DHT22;10390;53.566;9.980;2023-04-24T11:07:10;26.30;1.00
20463;DHT22;10390;53.566;9.980;2023-04-24T11:09:36;26.30;1.00
20463;DHT22;10390;53.566;9.980;2023-04-24T11:14:30;26.30;1.00
20463;DHT22;10390;53.566;9.980;2023-04-24T11:16:55;26.30;1.00
20463;DHT22;10390;53.566;9.980;2023-04-24T11:19:24;26.30;1.00
20463;DHT22;10390;53.566;9.980;2023-04-24T11:22:00;26.30;1.00
20463;DHT22;10390;53.566;9.980;2023-04-24T11:27:14;26.30;1.00
20463;DHT22;10390;53.566;9.980;2023-04-24T11:29:44;26.30;1.00
20463;DHT22;10390;53.566;9.980;2023-04-24T11:34:52;26.30;1.00
20463;DHT22;10390;53.566;9.980;2023-04-24T11:37:18;26.30;1.00
20463;DHT22;10390;53.566;9.980;2023-04-24T11:39:44;26.20;1.00
20463;DHT22;10390;53.566;9.980;2023-04-24T11:42:10;26.20;1.00
20463;DHT22;10390;53.566;9.980;2023-04-24T11:44:35;26.20;1.00
20463;DHT22;10390;53.566;9.980;2023-04-24T11:47:08;26.20;1.00
20463;DHT22;10390;53.566;9.980;2023-04-24T11:49:36;26.20;1.00
20463;DHT22;10390;53.566;9.980;2023-04-24T11:52:02;26.20;1.00
20463;DHT22;10390;53.566;9.980;2023-04-24T11:54:28;26.20;1.00
20463;DHT22;10390;53.566;9.980;2023-04-24T11:56:55;26.20;1.00
20463;DHT22;10390;53.566;9.980;2023-04-24T11:59:21;26.20;1.00
20463;DHT22;10390;53.566;9.980;2023-04-24T12:01:48;26.20;1.00
20463;DHT22;10390;53.566;9.980;2023-04-24T12:04:16;26.20;1.00
20463;DHT22;10390;53.566;9.980;2023-04-24T12:07:03;26.20;1.00
20463;DHT22;10390;53.566;9.980;2023-04-24T12:09:40;26.20;1.00
20463;DHT22;10390;53.566;9.980;2023-04-24T12:12:07;26.10;1.00
20463;DHT22;10390;53.566;9.980;2023-04-24T12:14:32;26.20;1.00
20463;DHT22;10390;53.566;9.980;2023-04-24T12:16:58;26.10;1.00
20463;DHT22;10390;53.566;9.980;2023-04-24T12:19:24;26.20;1.00
20463;DHT22;10390;53.566;9.980;2023-04-24T12:22:03;26.10;1.00
20463;DHT22;10390;53.566;9.980;2023-04-24T12:24:29;26.10;1.00
20463;DHT22;10390;53.566;9.980;2023-04-24T12:26:56;26.10;1.00
20463;DHT22;10390;53.566;9.980;2023-04-24T12:29:22;26.10;1.00
20463;DHT22;10390;53.566;9.980;2023-04-24T12:31:48;26.10;1.00
20463;DHT22;10390;53.566;9.980;2023-04-24T12:34:20;26.10;1.00
20463;DHT22;10390;53.566;9.980;2023-04-24T12:36:47;26.10;1.00
20463;DHT22;10390;53.566;9.980;2023-04-24T12:39:17;26.10;1.00
20463;DHT22;10390;53.566;9.980;2023-04-24T12:41:56;26.10;1.00
20463;DHT22;10390;53.566;9.980;2023-04-24T12:44:29;26.10;1.00
20463;DHT22;10390;53.566;9.980;2023-04-24T12:46:56;26.10;1.00
20463;DHT22;10390;53.566;9.980;2023-04-24T12:49:21;26.10;1.00
20463;DHT22;10390;53.566;9.980;2023-04-24T12:51:47;26.00;1.00
20463;DHT22;10390;53.566;9.980;2023-04-24T12:54:12;26.00;1.00
20463;DHT22;10390;53.566;9.980;2023-04-24T12:56:38;26.00;1.00
20463;DHT22;10390;53.566;9.980;2023-04-24T12:59:04;26.00;1.00
20463;DHT22;10390;53.566;9.980;2023-04-24T13:01:30;26.00;1.00
20463;DHT22;10390;53.566;9.980;2023-04-24T13:03:56;26.00;1.00
20463;DHT22;10390;53.566;9.980;2023-04-24T13:06:22;26.00;1.00
20463;DHT22;10390;53.566;9.980;2023-04-24T13:08:47;26.00;1.00
20463;DHT22;10390;53.566;9.980;2023-04-24T13:11:14;26.00;1.00
20463;DHT22;10390;53.566;9.980;2023-04-24T13:13:39;25.90;1.00
20463;DHT22;10390;53.566;9.980;2023-04-24T13:16:05;26.00;1.00
20463;DHT22;10390;53.566;9.980;2023-04-24T13:18:31;26.00;1.00
20463;DHT22;10390;53.566;9.980;2023-04-24T13:20:56;26.00;1.00
20463;DHT22;10390;53.566;9.980;2023-04-24T13:23:22;26.00;1.00
20463;DHT22;10390;53.566;9.980;2023-04-24T13:25:48;25.90;1.00
20463;DHT22;10390;53.566;9.980;2023-04-24T13:28:14;25.90;1.00
20463;DHT22;10390;53.566;9.980;2023-04-24T13:30:40;26.00;1.00
20463;DHT22;10390;53.566;9.980;2023-04-24T13:33:05;25.90;1.00
20463;DHT22;10390;53.566;9.980;2023-04-24T13:35:31;26.00;1.00
20463;DHT22;10390;53.566;9.980;2023-04-24T13:37:57;25.90;1.00
20463;DHT22;10390;53.566;9.980;2023-04-24T13:40:23;25.90;1.00
20463;DHT22;10390;53.566;9.980;2023-04-24T13:42:49;25.90;1.00
20463;DHT22;10390;53.566;9.980;2023-04-24T13:45:15;25.90;1.00
20463;DHT22;10390;53.566;9.980;2023-04-24T13:47:40;25.90;1.00
20463;DHT22;10390;53.566;9.980;2023-04-24T13:50:08;25.90;1.00
20463;DHT22;10390;53.566;9.980;2023-04-24T13:52:34;25.90;1.00
20463;DHT22;10390;53.566;9.980;2023-04-24T13:54:59;25.90;1.00
20463;DHT22;10390;53.566;9.980;2023-04-24T13:57:25;25.90;1.00
20463;DHT22;10390;53.566;9.980;2023-04-24T13:59:51;25.90;1.00
20463;DHT22;10390;53.566;9.980;2023-04-24T14:02:16;25.90;1.00
20463;DHT22;10390;53.566;9.980;2023-04-24T14:04:42;25.90;1.00
20463;DHT22;10390;53.566;9.980;2023-04-24T14:07:08;25.80;1.00
20463;DHT22;10390;53.566;9.980;2023-04-24T14:09:33;25.80;1.00
20463;DHT22;10390;53.566;9.980;2023-04-24T14:11:59;25.80;1.00
20463;DHT22;10390;53.566;9.980;2023-04-24T14:14:27;25.90;1.00
20463;DHT22;10390;53.566;9.980;2023-04-24T14:16:52;25.80;1.00
20463;DHT22;10390;53.566;9.980;2023-04-24T14:19:18;25.80;1.00
20463;DHT22;10390;53.566;9.980;2023-04-24T14:21:44;25.80;1.00
20463;DHT22;10390;53.566;9.980;2023-04-24T14:24:09;25.90;1.00
20463;DHT22;10390;53.566;9.980;2023-04-24T14:26:35;25.80;1.00
20463;DHT22;10390;53.566;9.980;2023-04-24T14:29:01;25.80;1.00
20463;DHT22;10390;53.566;9.980;2023-04-24T14:31:27;25.90;1.00
20463;DHT22;10390;53.566;9.980;2023-04-24T14:33:53;25.90;1.00
20463;DHT22;10390;53.566;9.980;2023-04-24T14:36:19;25.90;1.00
20463;DHT22;10390;53.566;9.980;2023-04-24T14:38:44;25.80;1.00
20463;DHT22;10390;53.566;9.980;2023-04-24T14:41:10;25.90;1.00
20463;DHT22;10390;53.566;9.980;2023-04-24T14:43:37;25.90;1.00
20463;DHT22;10390;53.566;9.980;2023-04-24T14:46:03;25.90;1.00
20463;DHT22;10390;53.566;9.980;2023-04-24T14:48:29;25.90;1.00
20463;DHT22;10390;53.566;9.980;2023-04-24T14:50:55;25.90;1.00
20463;DHT22;10390;53.566;9.980;2023-04-24T14:53:21;25.90;1.00
20463;DHT22;10390;53.566;9.980;2023-04-24T14:55:46;25.80;1.00
20463;DHT22;10390;53.566;9.980;2023-04-24T14:58:12;25.80;1.00
20463;DHT22;10390;53.566;9.980;2023-04-24T15:00:37;25.80;1.00
20463;DHT22;10390;53.566;9.980;2023-04-24T15:03:03;25.90;1.00
20463;DHT22;10390;53.566;9.980;2023-04-24T15:05:29;25.90;1.00
20463;DHT22;10390;53.566;9.980;2023-04-24T15:07:55;25.90;1.00
20463;DHT22;10390;53.566;9.980;2023-04-24T15:10:21;25.90;1.00
20463;DHT22;10390;53.566;9.980;2023-04-24T15:12:48;25.80;1.00
20463;DHT22;10390;53.566;9.980;2023-04-24T15:15:14;25.80;1.00
20463;DHT22;10390;53.566;9.980;2023-04-24T15:17:40;25.80;1.00
20463;DHT22;10390;53.566;9.980;2023-04-24T15:20:06;25.90;1.00
20463;DHT22;10390;53.566;9.980;2023-04-24T15:22:32;25.90;1.00
20463;DHT22;10390;53.566;9.980;2023-04-24T15:24:58;25.90;1.00
20463;DHT22;10390;53.566;9.980;2023-04-24T15:27:23;25.80;1.00
20463;DHT22;10390;53.566;9.980;2023-04-24T15:29:49;25.90;1.00
20463;DHT22;10390;53.566;9.980;2023-04-24T15:32:15;25.90;1.00
20463;DHT22;10390;53.566;9.980;2023-04-24T15:34:41;25.90;1.00
20463;DHT22;10390;53.566;9.980;2023-04-24T15:37:06;25.80;1.00
20463;DHT22;10390;53.566;9.980;2023-04-24T15:39:32;25.80;1.00
20463;DHT22;10390;53.566;9.980;2023-04-24T15:41:59;25.80;1.00
20463;DHT22;10390;53.566;9.980;2023-04-24T15:44:25;25.80;1.00
20463;DHT22;10390;53.566;9.980;2023-04-24T15:46:51;25.80;1.00
20463;DHT22;10390;53.566;9.980;2023-04-24T15:49:17;25.80;1.00
20463;DHT22;10390;53.566;9.980;2023-04-24T15:51:43;25.80;1.00
20463;DHT22;10390;53.566;9.980;2023-04-24T15:54:08;25.70;1.00